createdAt,value
2023-05-10T00:02:21.728Z,3.33
2023-05-10T00:04:48.105Z,3.40
2023-05-10T00:07:14.453Z,3.45
2023-05-10T00:09:40.891Z,3.50
2023-05-10T00:12:07.388Z,3.95
2023-05-10T00:14:33.833Z,4.07
2023-05-10T00:17:00.252Z,3.38
2023-05-10T00:19:26.690Z,3.03
2023-05-10T00:21:53.033Z,4.25
2023-05-10T00:24:19.428Z,3.47
2023-05-10T00:26:45.761Z,3.80
2023-05-10T00:29:12.124Z,3.88
2023-05-10T00:31:38.530Z,3.28
2023-05-10T00:34:04.885Z,3.47
2023-05-10T00:36:31.206Z,3.45
2023-05-10T00:38:57.684Z,3.97
2023-05-10T00:41:24.015Z,3.28
2023-05-10T00:43:50.521Z,3.80
2023-05-10T00:46:17.087Z,3.17
2023-05-10T00:48:43.436Z,3.70
2023-05-10T00:51:09.808Z,3.70
2023-05-10T00:53:36.190Z,3.85
2023-05-10T00:56:02.514Z,3.38
2023-05-10T00:58:29.001Z,3.58
2023-05-10T01:00:55.499Z,3.17
2023-05-10T01:03:21.889Z,3.40
2023-05-10T01:05:48.270Z,2.90
2023-05-10T01:08:14.635Z,2.55
2023-05-10T01:10:40.948Z,3.30
2023-05-10T01:13:07.950Z,3.15
2023-05-10T01:15:34.407Z,3.65
2023-05-10T01:18:00.799Z,3.13
2023-05-10T01:20:27.174Z,3.45
2023-05-10T01:22:53.548Z,3.20
2023-05-10T01:25:19.925Z,2.67
2023-05-10T01:27:46.323Z,3.20
2023-05-10T01:30:16.029Z,3.38
2023-05-10T01:32:42.683Z,2.65
2023-05-10T01:35:09.054Z,2.92
2023-05-10T01:37:35.419Z,2.90
2023-05-10T01:40:01.748Z,2.63
2023-05-10T01:42:28.422Z,3.38
2023-05-10T01:44:54.771Z,2.78
2023-05-10T01:47:21.106Z,2.80
2023-05-10T01:49:47.445Z,3.95
2023-05-10T01:52:13.812Z,2.55
2023-05-10T01:54:40.145Z,2.80
2023-05-10T01:57:07.865Z,2.50
2023-05-10T01:59:34.260Z,3.08
2023-05-10T02:02:00.592Z,2.53
2023-05-10T02:04:26.932Z,2.30
2023-05-10T02:06:53.319Z,2.92
2023-05-10T02:09:19.650Z,2.58
2023-05-10T02:11:45.977Z,2.53
2023-05-10T02:14:12.312Z,4.18
2023-05-10T02:16:38.731Z,2.70
2023-05-10T02:19:05.109Z,2.70
2023-05-10T02:21:31.536Z,3.20
2023-05-10T02:23:57.964Z,2.40
2023-05-10T02:26:24.344Z,3.40
2023-05-10T02:28:50.721Z,2.13
2023-05-10T02:31:17.061Z,1.80
2023-05-10T02:33:43.377Z,4.88
2023-05-10T02:36:09.743Z,4.55
2023-05-10T02:38:36.657Z,2.60
2023-05-10T02:41:02.984Z,2.33
2023-05-10T02:43:29.346Z,2.05
2023-05-10T02:45:56.416Z,2.00
2023-05-10T02:48:22.768Z,3.25
2023-05-10T02:50:49.117Z,2.92
2023-05-10T02:53:15.440Z,1.50
2023-05-10T02:55:41.762Z,1.85
2023-05-10T02:58:08.172Z,2.33
2023-05-10T03:00:34.506Z,1.98
2023-05-10T03:03:00.839Z,1.92
2023-05-10T03:05:28.232Z,2.75
2023-05-10T03:07:55.496Z,1.60
2023-05-10T03:10:21.919Z,1.63
2023-05-10T03:12:48.416Z,2.70
2023-05-10T03:15:14.785Z,1.65
2023-05-10T03:17:41.192Z,1.65
2023-05-10T03:20:08.062Z,2.10
2023-05-10T03:22:34.482Z,2.15
2023-05-10T03:25:00.942Z,2.22
2023-05-10T03:27:29.700Z,3.78
2023-05-10T03:29:56.340Z,2.13
2023-05-10T03:32:23.002Z,2.55
2023-05-10T03:34:49.560Z,2.88
2023-05-10T03:37:15.979Z,1.80
2023-05-10T03:39:42.416Z,3.33
2023-05-10T03:42:10.357Z,5.47
2023-05-10T03:44:36.869Z,10.40
2023-05-10T03:47:03.410Z,5.85
2023-05-10T03:49:30.133Z,10.35
2023-05-10T03:51:56.767Z,6.32
2023-05-10T03:54:23.274Z,8.60
2023-05-10T03:56:49.760Z,18.00
2023-05-10T03:59:17.817Z,24.52
2023-05-10T04:01:44.364Z,14.48
2023-05-10T04:04:11.061Z,14.52
2023-05-10T04:06:37.592Z,10.65
2023-05-10T04:09:04.236Z,14.93
2023-05-10T04:11:30.806Z,22.48
2023-05-10T04:13:57.294Z,19.90
2023-05-10T04:16:23.942Z,21.50
2023-05-10T04:18:50.495Z,20.33
2023-05-10T04:21:16.931Z,26.00
2023-05-10T04:23:43.623Z,26.05
2023-05-10T04:26:10.110Z,31.38
2023-05-10T04:28:36.532Z,20.42
2023-05-10T04:31:03.087Z,22.10
2023-05-10T04:33:29.751Z,25.27
2023-05-10T04:35:56.206Z,20.90
2023-05-10T04:38:22.707Z,21.98
2023-05-10T04:40:49.267Z,16.30
2023-05-10T04:43:15.814Z,19.85
2023-05-10T04:45:42.287Z,13.23
2023-05-10T04:48:08.758Z,17.70
2023-05-10T04:50:35.565Z,22.38
2023-05-10T04:53:01.966Z,21.92
2023-05-10T04:55:28.455Z,18.25
2023-05-10T04:57:54.869Z,16.05
2023-05-10T05:00:21.250Z,12.10
2023-05-10T05:02:47.872Z,13.10
2023-05-10T05:05:14.525Z,12.45
2023-05-10T05:07:40.968Z,12.68
2023-05-10T05:10:07.488Z,10.20
2023-05-10T05:12:33.995Z,14.80
2023-05-10T05:15:00.410Z,13.90
2023-05-10T05:17:27.051Z,12.65
2023-05-10T05:19:53.502Z,15.45
2023-05-10T05:22:19.938Z,14.82
2023-05-10T05:24:46.408Z,16.27
2023-05-10T05:27:12.842Z,11.70
2023-05-10T05:29:39.324Z,19.75
2023-05-10T05:32:06.009Z,24.58
2023-05-10T05:34:32.498Z,22.60
2023-05-10T05:36:58.921Z,17.02
2023-05-10T05:39:25.461Z,18.48
2023-05-10T05:41:51.996Z,15.05
2023-05-10T05:44:18.473Z,14.70
2023-05-10T05:46:45.017Z,15.45
2023-05-10T05:49:11.568Z,13.75
2023-05-10T05:51:38.050Z,10.55
2023-05-10T05:54:04.541Z,16.50
2023-05-10T05:56:30.980Z,13.20
2023-05-10T05:58:57.378Z,10.90
2023-05-10T06:01:23.958Z,16.92
2023-05-10T06:03:51.921Z,12.23
2023-05-10T06:06:19.786Z,22.30
2023-05-10T06:08:46.273Z,13.68
2023-05-10T06:11:12.771Z,66.68
2023-05-10T06:13:39.139Z,47.35
2023-05-10T06:16:05.556Z,16.27
2023-05-10T06:18:31.908Z,50.15
2023-05-10T06:20:58.277Z,44.38
2023-05-10T06:23:24.692Z,56.88
2023-05-10T06:25:51.101Z,40.67
2023-05-10T06:28:17.509Z,55.10
2023-05-10T06:30:43.896Z,34.42
2023-05-10T06:33:10.281Z,30.63
2023-05-10T06:35:36.691Z,25.30
2023-05-10T06:38:03.142Z,29.75
2023-05-10T06:40:29.489Z,30.38
2023-05-10T06:42:55.831Z,21.83
2023-05-10T06:45:22.239Z,23.38
2023-05-10T06:47:48.675Z,20.30
2023-05-10T06:50:15.089Z,21.85
2023-05-10T06:52:41.522Z,19.88
2023-05-10T06:55:07.949Z,21.63
2023-05-10T06:57:34.356Z,19.27
2023-05-10T07:00:00.816Z,26.40
2023-05-10T07:02:27.306Z,20.45
2023-05-10T07:04:53.822Z,18.40
2023-05-10T07:07:20.357Z,19.20
2023-05-10T07:09:46.728Z,23.90
2023-05-10T07:12:15.034Z,14.27
2023-05-10T07:14:42.060Z,12.60
2023-05-10T07:17:08.479Z,17.48
2023-05-10T07:19:34.898Z,32.55
2023-05-10T07:22:01.333Z,29.85
2023-05-10T07:24:27.703Z,20.63
2023-05-10T07:26:54.063Z,20.15
2023-05-10T07:29:20.494Z,24.50
2023-05-10T07:31:46.934Z,35.22
2023-05-10T07:34:13.358Z,26.63
2023-05-10T07:36:39.904Z,26.17
2023-05-10T07:39:06.297Z,31.00
2023-05-10T07:41:33.916Z,28.65
2023-05-10T07:44:01.636Z,21.35
2023-05-10T07:46:28.119Z,21.10
2023-05-10T07:48:54.575Z,19.40
2023-05-10T07:51:21.023Z,16.73
2023-05-10T07:53:47.411Z,18.90
2023-05-10T07:56:13.789Z,15.25
2023-05-10T07:58:40.204Z,16.95
2023-05-10T08:01:06.568Z,17.25
2023-05-10T08:03:33.009Z,15.75
2023-05-10T08:05:59.546Z,45.83
2023-05-10T08:08:25.907Z,35.97
2023-05-10T08:10:52.242Z,54.17
2023-05-10T08:13:18.679Z,30.98
2023-05-10T08:15:45.101Z,39.35
2023-05-10T08:18:11.536Z,32.13
2023-05-10T08:20:38.043Z,29.98
2023-05-10T08:23:04.397Z,27.92
2023-05-10T08:25:30.829Z,31.73
2023-05-10T08:27:57.278Z,27.95
2023-05-10T08:30:23.674Z,24.25
2023-05-10T08:32:50.080Z,20.55
2023-05-10T08:35:16.796Z,21.08
2023-05-10T08:37:43.219Z,18.35
2023-05-10T08:40:09.582Z,21.67
2023-05-10T08:42:36.050Z,16.05
2023-05-10T08:45:02.435Z,18.60
2023-05-10T08:47:28.869Z,19.17
2023-05-10T08:49:55.319Z,17.02
2023-05-10T08:52:21.706Z,17.08
2023-05-10T08:54:48.173Z,16.40
2023-05-10T08:57:14.625Z,15.05
2023-05-10T08:59:41.023Z,15.13
2023-05-10T09:02:07.385Z,12.98
2023-05-10T09:04:33.863Z,19.27
2023-05-10T09:07:00.297Z,9.60
2023-05-10T09:09:26.683Z,10.27
2023-05-10T09:11:53.107Z,13.18
2023-05-10T09:14:19.518Z,19.35
2023-05-10T09:16:46.026Z,13.52
2023-05-10T09:19:12.656Z,16.40
2023-05-10T09:21:39.213Z,12.20
2023-05-10T09:24:05.649Z,11.38
2023-05-10T09:26:32.065Z,10.20
2023-05-10T09:28:58.511Z,13.73
2023-05-10T09:31:25.028Z,13.68
2023-05-10T09:33:51.497Z,14.18
2023-05-10T09:36:17.882Z,10.35
2023-05-10T09:38:44.245Z,9.80
2023-05-10T09:41:10.666Z,7.82
2023-05-10T09:43:37.041Z,9.77
2023-05-10T09:46:03.472Z,7.13
2023-05-10T09:48:29.929Z,8.60
2023-05-10T09:50:56.324Z,8.05
2023-05-10T09:53:22.696Z,8.40
2023-05-10T09:55:49.125Z,8.48
2023-05-10T09:58:15.692Z,14.85
2023-05-10T10:00:42.096Z,8.63
2023-05-10T10:03:08.611Z,10.32
2023-05-10T10:05:35.187Z,7.10
2023-05-10T10:08:01.539Z,8.20
2023-05-10T10:10:28.025Z,11.02
2023-05-10T10:12:54.404Z,8.20
2023-05-10T10:15:20.943Z,10.45
2023-05-10T10:17:47.577Z,10.93
2023-05-10T10:20:14.246Z,9.82
2023-05-10T10:22:40.921Z,7.05
2023-05-10T10:25:07.410Z,12.25
2023-05-10T10:27:33.832Z,7.65
2023-05-10T10:30:00.369Z,10.23
2023-05-10T10:32:26.908Z,7.72
2023-05-10T10:34:53.367Z,11.95
2023-05-10T10:37:19.844Z,20.75
2023-05-10T10:39:46.260Z,15.57
2023-05-10T10:42:12.614Z,16.45
2023-05-10T10:44:39.304Z,14.55
2023-05-10T10:47:05.937Z,12.75
2023-05-10T10:49:32.469Z,13.05
2023-05-10T10:51:58.996Z,12.43
2023-05-10T10:54:25.500Z,13.70
2023-05-10T10:56:51.888Z,10.93
2023-05-10T10:59:18.297Z,13.73
2023-05-10T11:01:44.733Z,14.77
2023-05-10T11:04:11.137Z,12.80
2023-05-10T11:06:37.730Z,11.90
2023-05-10T11:09:04.187Z,6.95
2023-05-10T11:11:30.587Z,9.27
2023-05-10T11:13:57.030Z,9.70
2023-05-10T11:16:23.518Z,12.93
2023-05-10T11:18:50.339Z,13.88
2023-05-10T11:21:16.778Z,11.00
2023-05-10T11:23:43.221Z,10.20
2023-05-10T11:26:09.923Z,10.45
2023-05-10T11:28:36.312Z,12.20
2023-05-10T11:31:02.733Z,9.77
2023-05-10T11:33:29.121Z,8.57
2023-05-10T11:35:55.498Z,8.77
2023-05-10T11:38:21.936Z,6.57
2023-05-10T11:40:48.326Z,6.35
2023-05-10T11:43:14.715Z,7.18
2023-05-10T11:45:41.225Z,7.03
2023-05-10T11:48:07.679Z,7.47
2023-05-10T11:50:34.132Z,6.18
2023-05-10T11:53:00.580Z,6.70
2023-05-10T11:55:26.909Z,7.55
2023-05-10T11:57:53.343Z,5.25
2023-05-10T12:00:20.041Z,6.53
2023-05-10T12:02:46.734Z,7.65
2023-05-10T12:05:13.167Z,5.80
2023-05-10T12:07:39.577Z,34.72
2023-05-10T12:10:05.982Z,10.55
2023-05-10T12:12:32.388Z,5.07
2023-05-10T12:14:58.884Z,10.75
2023-05-10T12:17:25.287Z,14.88
2023-05-10T12:19:51.621Z,40.58
2023-05-10T12:22:18.036Z,17.70
2023-05-10T12:24:44.406Z,8.88
2023-05-10T12:29:55.087Z,24.80
2023-05-10T12:32:21.459Z,9.18
2023-05-10T12:34:47.805Z,12.05
2023-05-10T12:37:14.244Z,7.65
2023-05-10T12:39:40.599Z,11.07
2023-05-10T12:42:06.972Z,7.88
2023-05-10T12:44:33.409Z,6.55
2023-05-10T12:46:59.729Z,9.50
2023-05-10T12:49:26.074Z,98.15
2023-05-10T12:51:52.480Z,9.07
2023-05-10T12:54:18.836Z,8.25
2023-05-10T12:56:45.152Z,21.08
2023-05-10T12:59:11.563Z,12.70
2023-05-10T13:01:38.066Z,30.17
2023-05-10T13:04:04.480Z,73.95
2023-05-10T13:06:30.873Z,48.47
2023-05-10T13:08:57.247Z,51.28
2023-05-10T13:11:23.634Z,29.48
2023-05-10T13:13:50.159Z,14.27
2023-05-10T13:16:16.613Z,4.85
2023-05-10T13:18:43.078Z,12.48
2023-05-10T13:21:09.511Z,6.30
2023-05-10T13:23:35.822Z,6.10
2023-05-10T13:26:02.139Z,9.45
2023-05-10T13:28:28.603Z,4.63
2023-05-10T13:30:55.101Z,3.90
2023-05-10T13:33:21.485Z,13.98
2023-05-10T13:35:47.848Z,7.38
2023-05-10T13:38:14.177Z,7.90
2023-05-10T13:40:40.508Z,15.35
2023-05-10T13:43:07.002Z,16.88
2023-05-10T13:45:33.416Z,13.63
2023-05-10T13:47:59.826Z,13.95
2023-05-10T13:50:26.226Z,7.30
2023-05-10T13:52:52.568Z,9.63
2023-05-10T13:55:19.429Z,13.05
2023-05-10T13:57:46.090Z,11.75
2023-05-10T14:00:12.410Z,9.05
2023-05-10T14:02:38.859Z,9.52
2023-05-10T14:05:05.392Z,15.20
2023-05-10T14:07:31.767Z,7.07
2023-05-10T14:09:58.257Z,11.05
2023-05-10T14:12:24.743Z,10.00
2023-05-10T14:14:51.047Z,7.88
2023-05-10T14:17:17.477Z,6.47
2023-05-10T14:19:44.056Z,8.30
2023-05-10T14:22:10.403Z,10.30
2023-05-10T14:24:36.711Z,8.55
2023-05-10T14:27:03.068Z,4.95
2023-05-10T14:29:29.413Z,6.35
2023-05-10T14:31:55.762Z,8.27
2023-05-10T14:34:22.153Z,4.25
2023-05-10T14:36:48.539Z,6.45
2023-05-10T14:39:14.930Z,5.05
2023-05-10T14:41:41.421Z,4.25
2023-05-10T14:44:07.774Z,4.03
2023-05-10T14:46:34.274Z,5.35
2023-05-10T14:49:00.856Z,7.68
2023-05-10T14:51:27.238Z,7.10
2023-05-10T14:53:53.549Z,5.70
2023-05-10T14:56:19.907Z,5.07
2023-05-10T14:58:46.281Z,3.80
2023-05-10T15:01:12.618Z,3.55
2023-05-10T15:03:39.683Z,5.05
2023-05-10T15:06:06.592Z,3.47
2023-05-10T15:08:33.014Z,5.13
2023-05-10T15:10:59.460Z,4.38
2023-05-10T15:13:25.802Z,5.80
2023-05-10T15:15:52.172Z,3.65
2023-05-10T15:18:18.885Z,3.88
2023-05-10T15:20:45.331Z,3.70
2023-05-10T15:23:11.670Z,3.47
2023-05-10T15:25:38.013Z,3.20
2023-05-10T15:28:04.343Z,2.53
2023-05-10T15:30:30.666Z,2.65
2023-05-10T15:32:57.150Z,2.95
2023-05-10T15:35:23.635Z,2.25
2023-05-10T15:37:49.972Z,3.72
2023-05-10T15:40:16.354Z,2.47
2023-05-10T15:42:42.673Z,2.28
2023-05-10T15:45:08.981Z,2.78
2023-05-10T15:47:35.434Z,2.58
2023-05-10T15:50:02.205Z,4.28
2023-05-10T15:52:28.689Z,3.30
2023-05-10T15:54:55.058Z,2.47
2023-05-10T15:57:21.384Z,3.25
2023-05-10T15:59:47.839Z,2.97
2023-05-10T16:02:14.352Z,3.65
2023-05-10T16:04:40.851Z,2.42
2023-05-10T16:07:07.336Z,2.92
2023-05-10T16:09:33.775Z,2.03
2023-05-10T16:12:00.196Z,3.65
2023-05-10T16:14:26.520Z,1.83
2023-05-10T16:16:52.991Z,2.10
2023-05-10T16:19:19.539Z,2.63
2023-05-10T16:21:45.954Z,1.77
2023-05-10T16:24:12.329Z,2.00
2023-05-10T16:26:38.681Z,3.35
2023-05-10T16:29:05.193Z,2.65
2023-05-10T16:31:31.736Z,1.83
2023-05-10T16:33:58.169Z,2.00
2023-05-10T16:36:24.578Z,1.75
2023-05-10T16:38:50.997Z,2.40
2023-05-10T16:41:17.316Z,2.95
2023-05-10T16:43:43.642Z,2.15
2023-05-10T16:46:10.011Z,1.75
2023-05-10T16:48:36.450Z,1.77
2023-05-10T16:51:02.906Z,3.03
2023-05-10T16:53:29.517Z,2.33
2023-05-10T16:55:55.875Z,1.88
2023-05-10T16:58:22.349Z,1.77
2023-05-10T17:00:48.847Z,2.17
2023-05-10T17:03:15.347Z,1.75
2023-05-10T17:05:41.810Z,2.55
2023-05-10T17:08:08.221Z,1.80
2023-05-10T17:10:34.535Z,2.65
2023-05-10T17:13:00.837Z,2.55
2023-05-10T17:15:27.256Z,2.80
2023-05-10T17:17:53.695Z,1.55
2023-05-10T17:20:20.089Z,2.97
2023-05-10T17:22:46.481Z,1.52
2023-05-10T17:25:12.847Z,1.95
2023-05-10T17:27:39.177Z,2.95
2023-05-10T17:30:05.602Z,1.60
2023-05-10T17:32:32.135Z,1.33
2023-05-10T17:34:58.455Z,1.95
2023-05-10T17:37:24.800Z,1.67
2023-05-10T17:39:51.194Z,1.42
2023-05-10T17:42:17.520Z,1.33
2023-05-10T17:44:43.938Z,2.08
2023-05-10T17:47:10.349Z,1.95
2023-05-10T17:49:36.720Z,1.25
2023-05-10T17:52:03.130Z,1.90
2023-05-10T17:54:29.542Z,0.90
2023-05-10T17:56:56.033Z,1.33
2023-05-10T17:59:22.579Z,1.63
2023-05-10T18:01:48.932Z,2.33
2023-05-10T18:04:15.342Z,1.35
2023-05-10T18:06:41.743Z,1.35
2023-05-10T18:09:08.176Z,1.30
2023-05-10T18:11:34.664Z,1.90
2023-05-10T18:14:01.072Z,1.27
2023-05-10T18:16:27.486Z,1.55
2023-05-10T18:18:53.885Z,1.38
2023-05-10T18:21:20.323Z,3.03
2023-05-10T18:23:46.688Z,1.98
2023-05-10T18:26:12.991Z,1.55
2023-05-10T18:28:39.433Z,1.38
2023-05-10T18:31:05.822Z,1.27
2023-05-10T18:33:32.269Z,1.25
2023-05-10T18:35:58.714Z,1.15
2023-05-10T18:38:25.045Z,1.63
2023-05-10T18:40:51.487Z,1.05
2023-05-10T18:43:18.035Z,2.08
2023-05-10T18:45:44.518Z,1.45
2023-05-10T18:48:10.928Z,1.70
2023-05-10T18:50:37.395Z,1.90
2023-05-10T18:53:03.774Z,2.38
2023-05-10T18:55:30.103Z,2.80
2023-05-10T18:57:56.479Z,2.95
2023-05-10T19:00:22.820Z,3.08
2023-05-10T19:02:49.189Z,2.70
2023-05-10T19:05:16.004Z,2.35
2023-05-10T19:07:42.663Z,3.08
2023-05-10T19:10:09.011Z,2.20
2023-05-10T19:12:35.416Z,3.15
2023-05-10T19:15:01.976Z,4.82
2023-05-10T19:17:30.259Z,2.03
2023-05-10T19:19:57.306Z,2.05
2023-05-10T19:22:35.350Z,3.42
2023-05-10T19:25:10.853Z,2.90
2023-05-10T19:27:37.172Z,2.70
2023-05-10T19:30:03.736Z,2.10
2023-05-10T19:32:30.170Z,2.70
2023-05-10T19:34:56.503Z,4.18
2023-05-10T19:37:23.242Z,2.28
2023-05-10T19:39:49.674Z,1.92
2023-05-10T19:42:16.085Z,1.73
2023-05-10T19:44:42.644Z,2.72
2023-05-10T19:47:09.183Z,2.35
2023-05-10T19:49:35.684Z,2.22
2023-05-10T19:52:02.026Z,2.10
2023-05-10T19:54:28.485Z,4.22
2023-05-10T19:56:54.807Z,2.50
2023-05-10T19:59:21.160Z,2.13
2023-05-10T20:01:47.530Z,2.60
2023-05-10T20:04:13.958Z,2.15
2023-05-10T20:06:40.447Z,1.88
2023-05-10T20:09:06.875Z,2.67
2023-05-10T20:11:33.202Z,2.67
2023-05-10T20:13:59.819Z,2.72
2023-05-10T20:16:26.947Z,2.92
2023-05-10T20:18:54.331Z,3.83
2023-05-10T20:21:20.821Z,1.98
2023-05-10T20:23:47.288Z,2.60
2023-05-10T20:26:13.626Z,2.63
2023-05-10T20:28:40.020Z,2.28
2023-05-10T20:31:06.456Z,2.10
2023-05-10T20:33:32.789Z,2.75
2023-05-10T20:35:59.474Z,1.75
2023-05-10T20:38:25.977Z,2.28
2023-05-10T20:40:52.305Z,2.00
2023-05-10T20:43:18.641Z,2.40
2023-05-10T20:45:45.145Z,1.88
2023-05-10T20:48:11.653Z,2.45
2023-05-10T20:50:38.093Z,2.92
2023-05-10T20:53:04.567Z,2.75
2023-05-10T20:55:30.958Z,2.20
2023-05-10T20:57:57.328Z,2.90
2023-05-10T21:00:23.707Z,2.55
2023-05-10T21:02:50.095Z,2.60
2023-05-10T21:05:16.473Z,3.58
2023-05-10T21:07:42.894Z,2.65
2023-05-10T21:10:09.234Z,2.58
2023-05-10T21:12:35.563Z,2.42
2023-05-10T21:15:01.931Z,2.05
2023-05-10T21:17:28.476Z,2.72
2023-05-10T21:19:54.915Z,2.42
2023-05-10T21:22:21.282Z,3.33
2023-05-10T21:24:47.617Z,2.58
2023-05-10T21:27:13.949Z,2.50
2023-05-10T21:29:40.309Z,2.28
2023-05-10T21:32:06.690Z,2.25
2023-05-10T21:34:33.046Z,2.53
2023-05-10T21:36:59.421Z,2.15
2023-05-10T21:39:25.840Z,2.75
2023-05-10T21:41:52.231Z,2.22
2023-05-10T21:44:18.668Z,3.10
2023-05-10T21:46:45.086Z,2.10
2023-05-10T21:49:11.530Z,2.00
2023-05-10T21:51:38.074Z,3.25
2023-05-10T21:54:04.440Z,4.65
2023-05-10T21:56:30.784Z,2.58
2023-05-10T21:58:57.323Z,2.78
2023-05-10T22:01:23.804Z,2.83
2023-05-10T22:03:50.345Z,3.38
2023-05-10T22:06:16.801Z,2.53
2023-05-10T22:08:43.154Z,3.38
2023-05-10T22:11:09.541Z,2.60
2023-05-10T22:13:35.973Z,2.47
2023-05-10T22:16:02.320Z,3.58
2023-05-10T22:18:28.829Z,2.88
2023-05-10T22:20:55.376Z,2.63
2023-05-10T22:23:21.811Z,2.92
2023-05-10T22:25:48.131Z,3.00
2023-05-10T22:28:14.570Z,2.38
2023-05-10T22:30:40.879Z,3.80
2023-05-10T22:33:07.267Z,2.97
2023-05-10T22:35:33.671Z,2.70
2023-05-10T22:38:00.134Z,2.90
2023-05-10T22:40:28.082Z,3.22
2023-05-10T22:42:54.546Z,3.05
2023-05-10T22:45:20.897Z,2.22
2023-05-10T22:47:47.307Z,2.97
2023-05-10T22:50:13.733Z,3.15
2023-05-10T22:52:40.054Z,2.75
2023-05-10T22:55:06.365Z,2.78
2023-05-10T22:57:32.711Z,3.40
2023-05-10T22:59:59.036Z,3.35
2023-05-10T23:02:25.355Z,2.80
2023-05-10T23:04:51.775Z,2.63
2023-05-10T23:07:18.110Z,3.20
2023-05-10T23:09:44.434Z,3.28
2023-05-10T23:12:10.803Z,3.03
2023-05-10T23:14:37.298Z,2.90
2023-05-10T23:17:03.710Z,2.30
2023-05-10T23:19:30.256Z,2.70
2023-05-10T23:21:56.800Z,2.92
2023-05-10T23:24:23.167Z,2.80
2023-05-10T23:26:49.549Z,3.22
2023-05-10T23:29:15.882Z,3.33
2023-05-10T23:31:42.295Z,3.00
2023-05-10T23:34:08.751Z,3.03
2023-05-10T23:36:35.077Z,3.00
2023-05-10T23:39:01.656Z,3.00
2023-05-10T23:41:28.134Z,2.70
2023-05-10T23:43:54.570Z,2.65
2023-05-10T23:46:21.033Z,2.75
2023-05-10T23:48:47.569Z,3.35
2023-05-10T23:51:13.933Z,2.92
2023-05-10T23:53:40.250Z,3.00
2023-05-10T23:56:06.616Z,4.30
2023-05-10T23:58:32.933Z,2.90
